sensor_id;sensor_type;location;lat;lon;timestamp;pressure;altitude;pressure_sealevel;temperature;humidity
18985;BME280;9626;52.552;13.436;2022-08-02T00:00:42;101182.44;;;18.81;100.00
18985;BME280;9626;52.552;13.436;2022-08-02T00:03:08;101181.44;;;18.84;100.00
18985;BME280;9626;52.552;13.436;2022-08-02T00:05:33;101179.19;;;18.95;100.00
18985;BME280;9626;52.552;13.436;2022-08-02T00:07:59;101181.41;;;19.04;100.00
18985;BME280;9626;52.552;13.436;2022-08-02T00:10:25;101195.56;;;19.08;100.00
18985;BME280;9626;52.552;13.436;2022-08-02T00:12:50;101197.31;;;19.09;100.00
18985;BME280;9626;52.552;13.436;2022-08-02T00:15:16;101192.59;;;19.14;100.00
18985;BME280;9626;52.552;13.436;2022-08-02T00:17:43;101190.03;;;19.11;100.00
18985;BME280;9626;52.552;13.436;2022-08-02T00:20:09;101188.16;;;19.13;100.00
18985;BME280;9626;52.552;13.436;2022-08-02T00:22:36;101190.97;;;19.10;100.00
18985;BME280;9626;52.552;13.436;2022-08-02T00:25:02;101182.13;;;19.08;100.00
18985;BME280;9626;52.552;13.436;2022-08-02T00:27:27;101184.66;;;19.11;100.00
18985;BME280;9626;52.552;13.436;2022-08-02T00:29:53;101188.25;;;19.12;100.00
18985;BME280;9626;52.552;13.436;2022-08-02T00:32:20;101186.34;;;19.14;100.00
18985;BME280;9626;52.552;13.436;2022-08-02T00:34:46;101183.50;;;19.17;100.00
18985;BME280;9626;52.552;13.436;2022-08-02T00:37:12;101179.19;;;19.14;100.00
18985;BME280;9626;52.552;13.436;2022-08-02T00:39:39;101183.56;;;19.15;100.00
18985;BME280;9626;52.552;13.436;2022-08-02T00:42:05;101180.97;;;19.14;100.00
18985;BME280;9626;52.552;13.436;2022-08-02T00:44:30;101176.59;;;19.11;100.00
18985;BME280;9626;52.552;13.436;2022-08-02T00:46:56;101182.22;;;19.06;100.00
18985;BME280;9626;52.552;13.436;2022-08-02T00:49:21;101191.63;;;18.96;100.00
18985;BME280;9626;52.552;13.436;2022-08-02T00:51:47;101181.03;;;18.93;100.00
18985;BME280;9626;52.552;13.436;2022-08-02T00:54:13;101176.53;;;18.94;100.00
18985;BME280;9626;52.552;13.436;2022-08-02T00:56:39;101181.19;;;18.90;100.00
18985;BME280;9626;52.552;13.436;2022-08-02T00:59:04;101184.53;;;18.95;100.00
18985;BME280;9626;52.552;13.436;2022-08-02T01:01:31;101191.63;;;18.96;100.00
18985;BME280;9626;52.552;13.436;2022-08-02T01:04:07;101190.75;;;18.96;100.00
18985;BME280;9626;52.552;13.436;2022-08-02T01:06:34;101197.44;;;18.85;100.00
18985;BME280;9626;52.552;13.436;2022-08-02T01:09:00;101190.50;;;18.81;100.00
18985;BME280;9626;52.552;13.436;2022-08-02T01:11:27;101195.66;;;18.86;100.00
18985;BME280;9626;52.552;13.436;2022-08-02T01:13:56;101199.50;;;18.80;100.00
18985;BME280;9626;52.552;13.436;2022-08-02T01:16:25;101191.88;;;18.71;100.00
18985;BME280;9626;52.552;13.436;2022-08-02T01:19:09;101194.56;;;18.71;100.00
18985;BME280;9626;52.552;13.436;2022-08-02T01:24:34;101206.31;;;18.87;100.00
18985;BME280;9626;52.552;13.436;2022-08-02T01:27:18;101198.34;;;18.86;100.00
18985;BME280;9626;52.552;13.436;2022-08-02T01:29:52;101200.06;;;18.88;100.00
18985;BME280;9626;52.552;13.436;2022-08-02T01:32:25;101208.09;;;18.87;100.00
18985;BME280;9626;52.552;13.436;2022-08-02T01:35:21;101206.41;;;18.86;100.00
18985;BME280;9626;52.552;13.436;2022-08-02T01:37:56;101211.94;;;18.81;100.00
18985;BME280;9626;52.552;13.436;2022-08-02T01:40:35;101204.28;;;18.73;100.00
18985;BME280;9626;52.552;13.436;2022-08-02T01:43:02;101205.22;;;18.72;100.00
18985;BME280;9626;52.552;13.436;2022-08-02T01:45:37;101209.84;;;18.69;100.00
18985;BME280;9626;52.552;13.436;2022-08-02T01:48:04;101206.88;;;18.75;100.00
18985;BME280;9626;52.552;13.436;2022-08-02T01:50:33;101208.91;;;18.70;100.00
18985;BME280;9626;52.552;13.436;2022-08-02T01:53:03;101201.00;;;18.67;100.00
18985;BME280;9626;52.552;13.436;2022-08-02T01:55:34;101201.13;;;18.64;100.00
18985;BME280;9626;52.552;13.436;2022-08-02T01:58:04;101202.19;;;18.59;100.00
18985;BME280;9626;52.552;13.436;2022-08-02T02:00:32;101201.56;;;18.54;100.00
18985;BME280;9626;52.552;13.436;2022-08-02T02:02:59;101203.81;;;18.64;100.00
18985;BME280;9626;52.552;13.436;2022-08-02T02:05:29;101204.16;;;18.56;100.00
18985;BME280;9626;52.552;13.436;2022-08-02T02:07:58;101192.84;;;18.49;100.00
18985;BME280;9626;52.552;13.436;2022-08-02T02:10:30;101200.56;;;18.57;100.00
18985;BME280;9626;52.552;13.436;2022-08-02T02:13:01;101211.84;;;18.64;100.00
18985;BME280;9626;52.552;13.436;2022-08-02T02:15:30;101202.19;;;18.59;100.00
18985;BME280;9626;52.552;13.436;2022-08-02T02:17:56;101207.44;;;18.63;100.00
18985;BME280;9626;52.552;13.436;2022-08-02T02:20:23;101205.56;;;18.65;100.00
18985;BME280;9626;52.552;13.436;2022-08-02T02:22:50;101199.09;;;18.69;100.00
18985;BME280;9626;52.552;13.436;2022-08-02T02:25:19;101207.75;;;18.75;100.00
18985;BME280;9626;52.552;13.436;2022-08-02T02:28:00;101202.88;;;18.65;100.00
18985;BME280;9626;52.552;13.436;2022-08-02T02:30:27;101203.75;;;18.65;100.00
18985;BME280;9626;52.552;13.436;2022-08-02T02:32:58;101211.66;;;18.68;100.00
18985;BME280;9626;52.552;13.436;2022-08-02T02:35:28;101196.31;;;18.72;100.00
18985;BME280;9626;52.552;13.436;2022-08-02T02:37:55;101207.06;;;18.70;100.00
18985;BME280;9626;52.552;13.436;2022-08-02T02:40:25;101205.22;;;18.72;100.00
18985;BME280;9626;52.552;13.436;2022-08-02T02:42:52;101210.66;;;18.71;100.00
18985;BME280;9626;52.552;13.436;2022-08-02T02:45:38;101211.72;;;18.67;100.00
18985;BME280;9626;52.552;13.436;2022-08-02T02:48:06;101203.59;;;18.68;100.00
18985;BME280;9626;52.552;13.436;2022-08-02T02:50:33;101208.91;;;18.70;100.00
18985;BME280;9626;52.552;13.436;2022-08-02T02:53:00;101204.69;;;18.64;100.00
18985;BME280;9626;52.552;13.436;2022-08-02T02:55:27;101206.69;;;18.59;100.00
18985;BME280;9626;52.552;13.436;2022-08-02T02:57:54;101205.19;;;18.53;100.00
18985;BME280;9626;52.552;13.436;2022-08-02T03:00:20;101206.19;;;18.51;100.00
18985;BME280;9626;52.552;13.436;2022-08-02T03:03:06;101217.91;;;18.48;100.00
18985;BME280;9626;52.552;13.436;2022-08-02T03:05:34;101211.69;;;18.48;100.00
18985;BME280;9626;52.552;13.436;2022-08-02T03:07:59;101217.91;;;18.48;100.00
18985;BME280;9626;52.552;13.436;2022-08-02T03:10:26;101216.31;;;18.44;100.00
18985;BME280;9626;52.552;13.436;2022-08-02T03:12:52;101219.28;;;18.38;100.00
18985;BME280;9626;52.552;13.436;2022-08-02T03:15:18;101230.78;;;18.40;100.00
18985;BME280;9626;52.552;13.436;2022-08-02T03:17:45;101222.66;;;18.41;100.00
18985;BME280;9626;52.552;13.436;2022-08-02T03:20:16;101220.19;;;18.37;100.00
18985;BME280;9626;52.552;13.436;2022-08-02T03:22:43;101229.72;;;18.23;100.00
18985;BME280;9626;52.552;13.436;2022-08-02T03:25:11;101226.50;;;18.15;100.00
18985;BME280;9626;52.552;13.436;2022-08-02T03:27:37;101231.25;;;18.08;100.00
18985;BME280;9626;52.552;13.436;2022-08-02T03:30:05;101228.75;;;18.04;100.00
18985;BME280;9626;52.552;13.436;2022-08-02T03:32:33;101230.91;;;17.96;100.00
18985;BME280;9626;52.552;13.436;2022-08-02T03:34:59;101235.38;;;17.95;100.00
18985;BME280;9626;52.552;13.436;2022-08-02T03:37:26;101233.44;;;17.99;100.00
18985;BME280;9626;52.552;13.436;2022-08-02T03:39:52;101227.75;;;17.84;100.00
18985;BME280;9626;52.552;13.436;2022-08-02T03:42:20;101237.97;;;17.74;100.00
18985;BME280;9626;52.552;13.436;2022-08-02T03:44:47;101242.63;;;17.69;100.00
18985;BME280;9626;52.552;13.436;2022-08-02T03:47:13;101250.44;;;17.76;100.00
18985;BME280;9626;52.552;13.436;2022-08-02T03:49:40;101248.69;;;17.74;100.00
18985;BME280;9626;52.552;13.436;2022-08-02T03:52:07;101251.44;;;17.73;100.00
18985;BME280;9626;52.552;13.436;2022-08-02T03:54:32;101250.03;;;17.63;100.00
18985;BME280;9626;52.552;13.436;2022-08-02T03:56:58;101249.38;;;17.57;100.00
18985;BME280;9626;52.552;13.436;2022-08-02T03:59:24;101249.19;;;17.62;100.00
18985;BME280;9626;52.552;13.436;2022-08-02T04:01:50;101246.06;;;17.73;100.00
18985;BME280;9626;52.552;13.436;2022-08-02T04:04:15;101251.97;;;17.81;100.00
18985;BME280;9626;52.552;13.436;2022-08-02T04:06:41;101250.91;;;17.85;100.00
18985;BME280;9626;52.552;13.436;2022-08-02T04:09:06;101263.56;;;17.82;100.00
18985;BME280;9626;52.552;13.436;2022-08-02T04:11:32;101262.47;;;17.87;100.00
18985;BME280;9626;52.552;13.436;2022-08-02T04:14:08;101268.41;;;17.96;100.00
18985;BME280;9626;52.552;13.436;2022-08-02T04:16:44;101266.53;;;17.98;100.00
18985;BME280;9626;52.552;13.436;2022-08-02T04:19:16;101271.75;;;18.01;100.00
18985;BME280;9626;52.552;13.436;2022-08-02T04:21:45;101270.03;;;18.00;100.00
18985;BME280;9626;52.552;13.436;2022-08-02T04:24:13;101272.69;;;18.00;100.00
18985;BME280;9626;52.552;13.436;2022-08-02T04:26:41;101273.63;;;17.99;100.00
18985;BME280;9626;52.552;13.436;2022-08-02T04:29:10;101274.34;;;18.02;100.00
18985;BME280;9626;52.552;13.436;2022-08-02T04:31:37;101271.88;;;17.98;100.00
18985;BME280;9626;52.552;13.436;2022-08-02T04:34:03;101272.00;;;17.95;100.00
18985;BME280;9626;52.552;13.436;2022-08-02T04:36:29;101272.81;;;17.97;100.00
18985;BME280;9626;52.552;13.436;2022-08-02T04:38:55;101274.41;;;18.01;100.00
18985;BME280;9626;52.552;13.436;2022-08-02T04:41:20;101275.38;;;18.00;100.00
18985;BME280;9626;52.552;13.436;2022-08-02T04:43:46;101278.09;;;17.98;100.00
18985;BME280;9626;52.552;13.436;2022-08-02T04:46:11;101279.84;;;17.99;100.00
18985;BME280;9626;52.552;13.436;2022-08-02T04:48:37;101285.34;;;17.96;100.00
18985;BME280;9626;52.552;13.436;2022-08-02T04:51:03;101286.88;;;18.02;100.00
18985;BME280;9626;52.552;13.436;2022-08-02T04:53:29;101285.28;;;17.98;100.00
18985;BME280;9626;52.552;13.436;2022-08-02T04:55:54;101291.63;;;17.95;100.00
18985;BME280;9626;52.552;13.436;2022-08-02T04:58:20;101286.25;;;17.95;100.00
18985;BME280;9626;52.552;13.436;2022-08-02T05:00:45;101289.97;;;17.91;100.00
18985;BME280;9626;52.552;13.436;2022-08-02T05:03:11;101296.25;;;17.92;100.00
18985;BME280;9626;52.552;13.436;2022-08-02T05:05:38;101285.75;;;17.85;100.00
18985;BME280;9626;52.552;13.436;2022-08-02T05:08:04;101290.19;;;17.86;100.00
18985;BME280;9626;52.552;13.436;2022-08-02T05:10:30;101293.66;;;17.88;100.00
18985;BME280;9626;52.552;13.436;2022-08-02T05:12:55;101290.03;;;17.89;100.00
18985;BME280;9626;52.552;13.436;2022-08-02T05:15:21;101290.03;;;17.89;100.00
18985;BME280;9626;52.552;13.436;2022-08-02T05:17:47;101295.19;;;17.96;100.00
18985;BME280;9626;52.552;13.436;2022-08-02T05:20:14;101288.09;;;17.95;100.00
18985;BME280;9626;52.552;13.436;2022-08-02T05:22:40;101296.13;;;17.95;100.00
18985;BME280;9626;52.552;13.436;2022-08-02T05:25:06;101289.84;;;17.96;100.00
18985;BME280;9626;52.552;13.436;2022-08-02T05:27:32;101289.00;;;17.94;100.00
18985;BME280;9626;52.552;13.436;2022-08-02T05:29:58;101295.22;;;17.94;100.00
18985;BME280;9626;52.552;13.436;2022-08-02T05:32:24;101289.19;;;17.89;100.00
18985;BME280;9626;52.552;13.436;2022-08-02T05:34:50;101295.28;;;17.93;100.00
18985;BME280;9626;52.552;13.436;2022-08-02T05:37:16;101305.03;;;17.95;100.00
18985;BME280;9626;52.552;13.436;2022-08-02T05:39:41;101303.97;;;17.99;100.00
18985;BME280;9626;52.552;13.436;2022-08-02T05:42:07;101311.06;;;18.00;100.00
18985;BME280;9626;52.552;13.436;2022-08-02T05:44:33;101305.63;;;18.02;100.00
18985;BME280;9626;52.552;13.436;2022-08-02T05:46:59;101313.53;;;18.05;99.80
18985;BME280;9626;52.552;13.436;2022-08-02T05:49:24;101311.94;;;18.01;96.41
18985;BME280;9626;52.552;13.436;2022-08-02T05:52:08;101318.09;;;18.03;93.49
18985;BME280;9626;52.552;13.436;2022-08-02T05:57:08;101328.81;;;18.25;94.79
18985;BME280;9626;52.552;13.436;2022-08-02T06:02:19;101332.66;;;18.40;93.80
18985;BME280;9626;52.552;13.436;2022-08-02T06:04:57;101327.16;;;18.43;92.48
18985;BME280;9626;52.552;13.436;2022-08-02T06:07:24;101329.44;;;18.52;89.03
18985;BME280;9626;52.552;13.436;2022-08-02T06:09:51;101328.13;;;18.63;88.03
18985;BME280;9626;52.552;13.436;2022-08-02T06:12:18;101329.34;;;18.76;88.01
18985;BME280;9626;52.552;13.436;2022-08-02T06:14:45;101332.59;;;18.83;85.79
18985;BME280;9626;52.552;13.436;2022-08-02T06:17:12;101330.53;;;18.89;84.44
18985;BME280;9626;52.552;13.436;2022-08-02T06:19:39;101332.13;;;18.95;79.98
18985;BME280;9626;52.552;13.436;2022-08-02T06:22:06;101332.03;;;18.97;80.31
18985;BME280;9626;52.552;13.436;2022-08-02T06:24:44;101338.19;;;18.99;80.29
18985;BME280;9626;52.552;13.436;2022-08-02T06:27:14;101332.75;;;19.00;79.89
18985;BME280;9626;52.552;13.436;2022-08-02T06:29:42;101332.69;;;19.02;80.20
18985;BME280;9626;52.552;13.436;2022-08-02T06:32:07;101324.97;;;19.15;80.00
18985;BME280;9626;52.552;13.436;2022-08-02T06:34:37;101326.22;;;19.27;79.62
18985;BME280;9626;52.552;13.436;2022-08-02T06:39:47;101332.47;;;19.46;77.49
18985;BME280;9626;52.552;13.436;2022-08-02T06:42:16;101328.69;;;19.50;73.73
18985;BME280;9626;52.552;13.436;2022-08-02T06:44:45;101325.59;;;19.59;72.44
18985;BME280;9626;52.552;13.436;2022-08-02T06:47:11;101323.81;;;19.58;71.71
18985;BME280;9626;52.552;13.436;2022-08-02T06:49:37;101325.59;;;19.59;72.49
18985;BME280;9626;52.552;13.436;2022-08-02T06:52:03;101319.91;;;19.66;72.93
18985;BME280;9626;52.552;13.436;2022-08-02T06:54:29;101315.84;;;19.76;73.32
18985;BME280;9626;52.552;13.436;2022-08-02T06:56:54;101320.50;;;19.91;74.40
18985;BME280;9626;52.552;13.436;2022-08-02T06:59:20;101317.13;;;20.05;74.36
18985;BME280;9626;52.552;13.436;2022-08-02T07:01:45;101318.09;;;20.22;72.37
18985;BME280;9626;52.552;13.436;2022-08-02T07:04:11;101314.31;;;20.26;71.71
18985;BME280;9626;52.552;13.436;2022-08-02T07:06:37;101315.19;;;20.26;71.82
18985;BME280;9626;52.552;13.436;2022-08-02T07:09:05;101309.66;;;20.30;70.67
18985;BME280;9626;52.552;13.436;2022-08-02T07:11:31;101313.13;;;20.32;70.66
18985;BME280;9626;52.552;13.436;2022-08-02T07:13:57;101308.38;;;20.37;68.71
18985;BME280;9626;52.552;13.436;2022-08-02T07:16:22;101312.81;;;20.38;69.71
18985;BME280;9626;52.552;13.436;2022-08-02T07:18:48;101314.00;;;20.32;68.37
18985;BME280;9626;52.552;13.436;2022-08-02T07:21:13;101321.88;;;20.18;68.45
18985;BME280;9626;52.552;13.436;2022-08-02T07:23:39;101316.22;;;19.87;70.70
18985;BME280;9626;52.552;13.436;2022-08-02T07:26:05;101315.84;;;19.95;70.74
18985;BME280;9626;52.552;13.436;2022-08-02T07:28:30;101304.06;;;19.98;69.52
18985;BME280;9626;52.552;13.436;2022-08-02T07:30:56;101316.66;;;20.15;70.04
18985;BME280;9626;52.552;13.436;2022-08-02T07:33:21;101318.19;;;20.38;69.21
18985;BME280;9626;52.552;13.436;2022-08-02T07:35:47;101317.25;;;20.56;67.03
18985;BME280;9626;52.552;13.436;2022-08-02T07:38:12;101305.00;;;20.33;67.23
18985;BME280;9626;52.552;13.436;2022-08-02T07:40:38;101315.34;;;20.41;68.55
18985;BME280;9626;52.552;13.436;2022-08-02T07:43:04;101308.38;;;20.54;67.70
18985;BME280;9626;52.552;13.436;2022-08-02T07:45:31;101316.44;;;20.37;67.01
18985;BME280;9626;52.552;13.436;2022-08-02T07:47:56;101312.97;;;20.35;66.35
18985;BME280;9626;52.552;13.436;2022-08-02T07:50:22;101301.28;;;20.36;68.07
18985;BME280;9626;52.552;13.436;2022-08-02T07:52:48;101307.28;;;20.41;65.91
18985;BME280;9626;52.552;13.436;2022-08-02T07:55:15;101296.13;;;20.49;66.49
18985;BME280;9626;52.552;13.436;2022-08-02T07:57:42;101296.88;;;20.70;65.95
18985;BME280;9626;52.552;13.436;2022-08-02T08:00:08;101300.72;;;20.82;63.75
18985;BME280;9626;52.552;13.436;2022-08-02T08:02:35;101294.94;;;20.89;63.19
18985;BME280;9626;52.552;13.436;2022-08-02T08:05:00;101303.81;;;20.91;62.68
18985;BME280;9626;52.552;13.436;2022-08-02T08:07:26;101305.88;;;20.86;61.22
18985;BME280;9626;52.552;13.436;2022-08-02T08:09:52;101306.88;;;21.01;61.51
18985;BME280;9626;52.552;13.436;2022-08-02T08:12:18;101309.03;;;20.77;60.99
18985;BME280;9626;52.552;13.436;2022-08-02T08:14:43;101307.53;;;20.89;60.97
18985;BME280;9626;52.552;13.436;2022-08-02T08:17:09;101301.81;;;20.77;60.98
18985;BME280;9626;52.552;13.436;2022-08-02T08:19:35;101299.38;;;21.06;60.27
18985;BME280;9626;52.552;13.436;2022-08-02T08:22:00;101295.34;;;21.65;58.85
18985;BME280;9626;52.552;13.436;2022-08-02T08:24:27;101298.47;;;21.73;58.59
18985;BME280;9626;52.552;13.436;2022-08-02T08:26:54;101295.84;;;22.34;56.43
18985;BME280;9626;52.552;13.436;2022-08-02T08:29:20;101284.00;;;22.67;55.17
18985;BME280;9626;52.552;13.436;2022-08-02T08:31:46;101288.22;;;23.16;53.39
18985;BME280;9626;52.552;13.436;2022-08-02T08:34:12;101289.75;;;23.34;51.54
18985;BME280;9626;52.552;13.436;2022-08-02T08:36:38;101284.72;;;23.42;51.85
18985;BME280;9626;52.552;13.436;2022-08-02T08:39:04;101287.41;;;23.84;50.12
18985;BME280;9626;52.552;13.436;2022-08-02T08:41:30;101291.81;;;24.27;49.04
18985;BME280;9626;52.552;13.436;2022-08-02T08:43:55;101292.88;;;24.37;47.82
18985;BME280;9626;52.552;13.436;2022-08-02T08:46:29;101277.66;;;24.49;48.24
18985;BME280;9626;52.552;13.436;2022-08-02T08:48:59;101278.34;;;24.66;47.81
18985;BME280;9626;52.552;13.436;2022-08-02T08:51:29;101288.09;;;24.15;48.30
18985;BME280;9626;52.552;13.436;2022-08-02T08:53:58;101285.19;;;23.35;51.64
18985;BME280;9626;52.552;13.436;2022-08-02T08:56:34;101277.84;;;23.37;51.71
18985;BME280;9626;52.552;13.436;2022-08-02T08:59:01;101289.47;;;24.08;49.39
18985;BME280;9626;52.552;13.436;2022-08-02T09:01:28;101287.19;;;24.42;49.16
18985;BME280;9626;52.552;13.436;2022-08-02T09:03:54;101287.44;;;24.90;46.98
18985;BME280;9626;52.552;13.436;2022-08-02T09:06:19;101278.78;;;24.72;47.06
18985;BME280;9626;52.552;13.436;2022-08-02T09:08:45;101284.25;;;24.05;49.37
18985;BME280;9626;52.552;13.436;2022-08-02T09:11:29;101280.66;;;23.77;49.19
18985;BME280;9626;52.552;13.436;2022-08-02T09:13:59;101281.41;;;23.79;51.12
18985;BME280;9626;52.552;13.436;2022-08-02T09:16:28;101281.00;;;23.58;49.64
18985;BME280;9626;52.552;13.436;2022-08-02T09:18:55;101277.69;;;23.11;52.01
18985;BME280;9626;52.552;13.436;2022-08-02T09:21:21;101276.94;;;23.23;52.38
18985;BME280;9626;52.552;13.436;2022-08-02T09:23:48;101274.44;;;23.48;51.80
18985;BME280;9626;52.552;13.436;2022-08-02T09:26:18;101282.59;;;23.33;51.81
18985;BME280;9626;52.552;13.436;2022-08-02T09:28:46;101280.47;;;22.95;52.48
18985;BME280;9626;52.552;13.436;2022-08-02T09:31:14;101270.84;;;23.20;52.40
18985;BME280;9626;52.552;13.436;2022-08-02T09:33:42;101274.78;;;23.28;52.92
18985;BME280;9626;52.552;13.436;2022-08-02T09:36:10;101272.06;;;23.43;51.63
18985;BME280;9626;52.552;13.436;2022-08-02T09:38:40;101267.22;;;23.48;51.18
18985;BME280;9626;52.552;13.436;2022-08-02T09:41:25;101264.16;;;23.40;50.29
18985;BME280;9626;52.552;13.436;2022-08-02T09:44:12;101259.34;;;23.31;52.21
18985;BME280;9626;52.552;13.436;2022-08-02T09:46:57;101267.22;;;23.48;51.44
18985;BME280;9626;52.552;13.436;2022-08-02T09:49:23;101258.50;;;23.16;52.29
18985;BME280;9626;52.552;13.436;2022-08-02T09:51:52;101265.34;;;23.21;51.01
18985;BME280;9626;52.552;13.436;2022-08-02T09:54:23;101253.00;;;23.17;52.24
18985;BME280;9626;52.552;13.436;2022-08-02T09:56:51;101251.63;;;23.24;51.87
18985;BME280;9626;52.552;13.436;2022-08-02T09:59:19;101253.06;;;23.30;50.77
18985;BME280;9626;52.552;13.436;2022-08-02T10:01:46;101253.78;;;23.19;52.04
18985;BME280;9626;52.552;13.436;2022-08-02T10:04:13;101252.78;;;23.20;52.20
18985;BME280;9626;52.552;13.436;2022-08-02T10:06:41;101250.66;;;23.40;51.93
18985;BME280;9626;52.552;13.436;2022-08-02T10:09:10;101248.72;;;23.42;51.91
18985;BME280;9626;52.552;13.436;2022-08-02T10:11:36;101257.91;;;22.96;52.65
18985;BME280;9626;52.552;13.436;2022-08-02T10:14:04;101251.63;;;22.95;53.84
18985;BME280;9626;52.552;13.436;2022-08-02T10:16:32;101258.28;;;22.90;52.92
18985;BME280;9626;52.552;13.436;2022-08-02T10:18:58;101263.41;;;22.80;52.70
18985;BME280;9626;52.552;13.436;2022-08-02T10:21:32;101264.97;;;23.13;52.42
18985;BME280;9626;52.552;13.436;2022-08-02T10:24:08;101263.81;;;23.17;51.62
18985;BME280;9626;52.552;13.436;2022-08-02T10:26:35;101262.34;;;22.83;53.20
18985;BME280;9626;52.552;13.436;2022-08-02T10:29:03;101264.09;;;23.12;52.93
18985;BME280;9626;52.552;13.436;2022-08-02T10:31:43;101262.84;;;23.18;51.28
18985;BME280;9626;52.552;13.436;2022-08-02T10:34:15;101260.78;;;23.36;51.44
18985;BME280;9626;52.552;13.436;2022-08-02T10:36:42;101258.53;;;23.57;50.81
18985;BME280;9626;52.552;13.436;2022-08-02T10:39:11;101259.09;;;23.90;49.51
18985;BME280;9626;52.552;13.436;2022-08-02T10:41:48;101256.28;;;23.91;48.82
18985;BME280;9626;52.552;13.436;2022-08-02T10:44:29;101261.53;;;24.07;48.83
18985;BME280;9626;52.552;13.436;2022-08-02T10:52:29;101250.13;;;24.29;46.91
18985;BME280;9626;52.552;13.436;2022-08-02T10:57:30;101226.28;;;24.09;48.21
18985;BME280;9626;52.552;13.436;2022-08-02T11:06:14;101228.69;;;24.26;47.67
18985;BME280;9626;52.552;13.436;2022-08-02T11:08:40;101220.88;;;23.82;47.91
18985;BME280;9626;52.552;13.436;2022-08-02T11:14:00;101214.88;;;23.91;48.51
18985;BME280;9626;52.552;13.436;2022-08-02T11:19:22;101208.25;;;23.82;48.99
18985;BME280;9626;52.552;13.436;2022-08-02T11:24:37;101189.72;;;24.03;47.55
18985;BME280;9626;52.552;13.436;2022-08-02T11:27:07;101198.34;;;23.95;47.23
18985;BME280;9626;52.552;13.436;2022-08-02T11:29:38;101196.06;;;23.89;47.58
18985;BME280;9626;52.552;13.436;2022-08-02T11:32:14;101194.09;;;23.91;47.39
18985;BME280;9626;52.552;13.436;2022-08-02T11:34:41;101192.88;;;23.83;46.68
18985;BME280;9626;52.552;13.436;2022-08-02T11:37:07;101199.81;;;23.87;46.74
18985;BME280;9626;52.552;13.436;2022-08-02T11:39:33;101195.22;;;24.14;46.74
18985;BME280;9626;52.552;13.436;2022-08-02T11:41:59;101197.75;;;24.18;46.56
18985;BME280;9626;52.552;13.436;2022-08-02T11:44:28;101203.72;;;24.23;46.41
18985;BME280;9626;52.552;13.436;2022-08-02T11:47:02;101201.13;;;24.34;45.01
18985;BME280;9626;52.552;13.436;2022-08-02T11:49:28;101203.81;;;24.47;42.47
18985;BME280;9626;52.552;13.436;2022-08-02T11:51:57;101203.06;;;24.45;42.39
18985;BME280;9626;52.552;13.436;2022-08-02T11:54:36;101195.81;;;24.33;43.38
18985;BME280;9626;52.552;13.436;2022-08-02T11:59:40;101197.75;;;24.30;42.82
18985;BME280;9626;52.552;13.436;2022-08-02T12:02:07;101193.41;;;24.15;42.56
18985;BME280;9626;52.552;13.436;2022-08-02T12:04:33;101181.19;;;24.22;43.96
18985;BME280;9626;52.552;13.436;2022-08-02T12:07:00;101179.69;;;24.31;44.91
18985;BME280;9626;52.552;13.436;2022-08-02T12:09:27;101168.44;;;24.50;44.46
18985;BME280;9626;52.552;13.436;2022-08-02T12:11:54;101169.09;;;24.67;42.04
18985;BME280;9626;52.552;13.436;2022-08-02T12:14:22;101167.31;;;24.91;41.56
18985;BME280;9626;52.552;13.436;2022-08-02T12:16:49;101170.16;;;25.14;40.80
18985;BME280;9626;52.552;13.436;2022-08-02T12:19:34;101170.78;;;25.30;40.40
18985;BME280;9626;52.552;13.436;2022-08-02T12:22:17;101168.34;;;24.77;40.55
18985;BME280;9626;52.552;13.436;2022-08-02T12:24:48;101168.41;;;24.76;41.65
18985;BME280;9626;52.552;13.436;2022-08-02T12:27:34;101166.25;;;24.81;41.49
18985;BME280;9626;52.552;13.436;2022-08-02T12:30:11;101166.56;;;24.89;41.14
18985;BME280;9626;52.552;13.436;2022-08-02T12:32:38;101163.28;;;24.97;41.02
18985;BME280;9626;52.552;13.436;2022-08-02T12:35:08;101160.72;;;24.95;41.68
18985;BME280;9626;52.552;13.436;2022-08-02T12:37:36;101163.72;;;25.04;41.42
18985;BME280;9626;52.552;13.436;2022-08-02T12:40:30;101149.00;;;24.95;41.64
18985;BME280;9626;52.552;13.436;2022-08-02T12:42:58;101154.31;;;24.96;41.49
18985;BME280;9626;52.552;13.436;2022-08-02T12:45:27;101158.22;;;24.92;40.89
18985;BME280;9626;52.552;13.436;2022-08-02T12:47:55;101155.28;;;24.95;41.59
18985;BME280;9626;52.552;13.436;2022-08-02T12:50:29;101158.53;;;25.01;41.54
18985;BME280;9626;52.552;13.436;2022-08-02T12:53:11;101160.94;;;24.92;41.74
18985;BME280;9626;52.552;13.436;2022-08-02T12:55:57;101151.75;;;25.19;40.76
18985;BME280;9626;52.552;13.436;2022-08-02T12:58:24;101147.00;;;25.47;40.29
18985;BME280;9626;52.552;13.436;2022-08-02T13:00:55;101143.56;;;25.56;40.32
18985;BME280;9626;52.552;13.436;2022-08-02T13:03:21;101145.97;;;25.61;39.92
18985;BME280;9626;52.552;13.436;2022-08-02T13:05:48;101133.50;;;25.58;40.35
18985;BME280;9626;52.552;13.436;2022-08-02T13:08:14;101129.56;;;25.62;40.20
18985;BME280;9626;52.552;13.436;2022-08-02T13:10:40;101126.69;;;25.88;39.82
18985;BME280;9626;52.552;13.436;2022-08-02T13:13:06;101124.94;;;26.23;39.42
18985;BME280;9626;52.552;13.436;2022-08-02T13:15:31;101121.38;;;26.34;39.36
18985;BME280;9626;52.552;13.436;2022-08-02T13:17:57;101129.88;;;26.40;39.16
18985;BME280;9626;52.552;13.436;2022-08-02T13:20:24;101129.88;;;26.29;39.15
18985;BME280;9626;52.552;13.436;2022-08-02T13:22:52;101134.41;;;26.06;39.32
18985;BME280;9626;52.552;13.436;2022-08-02T13:25:18;101133.59;;;25.92;40.06
18985;BME280;9626;52.552;13.436;2022-08-02T13:27:49;101136.44;;;25.55;40.38